Englewood, Colorado
Current Conditions -  °F | °C
As of 7:53 AM on Tuesday 21 Oct 2014 (Local Time) from KAPA Reporting Station
Broken Clouds Broken Clouds  
Wind Chill: 12°   Ceiling: 22000
Heat Index: 12°   Visibility: 10mi
Dew Point:   Wind: 9mph
Humidity: 55%   Direction: 200°SSW
Pressure: 30.06"   Gusts: NA
Location:  39.65°N, 104.99°W
Report Text: KAPA 211353Z 20008KT 10SM FEW110 SCT150 BKN220 12/03 A3006 RMK AO2 SLP140 T01220033
Loading
Personal Weather Stations






























Interactive Weather Map
Tropical Storm Tracking
New forecast layout! Learn more

10-Day Weather Forecast

Advertisements
Track Severe Weather on mobile